createdAt,value
2023-03-26T00:01:34.000Z,1012.28
2023-03-26T00:04:13.000Z,1012.19
2023-03-26T00:06:53.000Z,1012.14
2023-03-26T00:09:34.000Z,1012.27
2023-03-26T00:12:13.000Z,1012.3
2023-03-26T00:14:53.000Z,1012.27
2023-03-26T00:17:32.000Z,1012.41
2023-03-26T00:20:12.000Z,1012.4
2023-03-26T00:22:51.000Z,1012.38
2023-03-26T00:25:32.000Z,1012.52
2023-03-26T00:28:13.000Z,1012.49
2023-03-26T00:30:55.000Z,1012.36
2023-03-26T00:33:34.000Z,1012.36
2023-03-26T00:36:13.000Z,1012.46
2023-03-26T00:38:54.000Z,1012.4
2023-03-26T00:41:34.000Z,1012.47
2023-03-26T00:44:14.000Z,1012.41
2023-03-26T00:46:58.000Z,1012.33
2023-03-26T00:49:39.000Z,1012.36
2023-03-26T00:52:24.000Z,1012.36
2023-03-26T00:55:07.000Z,1012.26
2023-03-26T00:57:49.000Z,1012.26
2023-03-26T01:00:30.000Z,1012.25
2023-03-26T01:03:10.000Z,1012.17
2023-03-26T01:05:51.000Z,1012.24
2023-03-26T01:08:31.000Z,1012.31
2023-03-26T01:11:13.000Z,1012.2
2023-03-26T01:13:55.000Z,1012.12
2023-03-26T01:16:40.000Z,1012.3
2023-03-26T01:19:22.000Z,1012.34
2023-03-26T01:22:03.000Z,1012.33
2023-03-26T01:24:43.000Z,1012.36
2023-03-26T01:27:22.000Z,1012.41
2023-03-26T01:30:04.000Z,1012.35
2023-03-26T01:32:44.000Z,1012.39
2023-03-26T01:35:25.000Z,1012.4
2023-03-26T01:38:15.000Z,1012.3
2023-03-26T01:40:58.000Z,1012.27
2023-03-26T01:43:38.000Z,1012.34
2023-03-26T01:46:20.000Z,1012.36
2023-03-26T01:49:04.000Z,1012.28
2023-03-26T01:51:46.000Z,1012.29
2023-03-26T01:54:27.000Z,1012.27
2023-03-26T01:57:08.000Z,1012.15
2023-03-26T01:59:47.000Z,1012.19
2023-03-26T02:02:36.000Z,1012.21
2023-03-26T02:05:16.000Z,1012.18
2023-03-26T02:07:57.000Z,1012.3
2023-03-26T02:10:36.000Z,1012.3
2023-03-26T02:13:15.000Z,1012.2
2023-03-26T02:16:04.000Z,1012.24
2023-03-26T02:18:46.000Z,1012.36
2023-03-26T02:21:29.000Z,1012.33
2023-03-26T02:24:09.000Z,1012.24
2023-03-26T02:26:49.000Z,1012.33
2023-03-26T02:29:29.000Z,1012.3
2023-03-26T02:32:10.000Z,1012.26
2023-03-26T02:34:51.000Z,1012.2
2023-03-26T02:37:31.000Z,1012.26
2023-03-26T02:40:11.000Z,1012.25
2023-03-26T02:42:51.000Z,1012.31
2023-03-26T02:45:32.000Z,1012.25
2023-03-26T02:48:12.000Z,1012.22
2023-03-26T02:50:54.000Z,1012.23
2023-03-26T02:53:34.000Z,1012.28
2023-03-26T02:56:14.000Z,1012.28
2023-03-26T02:58:56.000Z,1012.12
2023-03-26T03:01:38.000Z,1012.24
2023-03-26T03:04:23.000Z,1012.18
2023-03-26T03:07:06.000Z,1012.15
2023-03-26T03:09:47.000Z,1012.27
2023-03-26T03:12:28.000Z,1012.25
2023-03-26T03:15:09.000Z,1012.13
2023-03-26T03:17:49.000Z,1012.22
2023-03-26T03:20:29.000Z,1012.17
2023-03-26T03:23:10.000Z,1012.08
2023-03-26T03:25:51.000Z,1012.11
2023-03-26T03:28:31.000Z,1012.12
2023-03-26T03:31:12.000Z,1012.03
2023-03-26T03:33:55.000Z,1012.14
2023-03-26T03:36:40.000Z,1012.13
2023-03-26T03:39:23.000Z,1012.05
2023-03-26T03:42:04.000Z,1012.05
2023-03-26T03:44:45.000Z,1012.12
2023-03-26T03:47:28.000Z,1012.05
2023-03-26T03:50:10.000Z,1011.98
2023-03-26T03:52:50.000Z,1012.02
2023-03-26T03:55:29.000Z,1012.04
2023-03-26T03:58:11.000Z,1012.01
2023-03-26T04:00:52.000Z,1012.05
2023-03-26T04:03:32.000Z,1012.04
2023-03-26T04:06:13.000Z,1011.92
2023-03-26T04:08:53.000Z,1012.0
2023-03-26T04:11:33.000Z,1012.02
2023-03-26T04:14:13.000Z,1011.91
2023-03-26T04:16:55.000Z,1011.98
2023-03-26T04:19:35.000Z,1012.03
2023-03-26T04:22:16.000Z,1011.92
2023-03-26T04:24:57.000Z,1011.97
2023-03-26T04:27:40.000Z,1011.93
2023-03-26T04:30:25.000Z,1011.94
2023-03-26T04:33:07.000Z,1011.91
2023-03-26T04:35:48.000Z,1011.93
2023-03-26T04:38:29.000Z,1011.94
2023-03-26T04:41:10.000Z,1011.77
2023-03-26T04:43:50.000Z,1011.89
2023-03-26T04:46:31.000Z,1011.87
2023-03-26T04:49:11.000Z,1011.77
2023-03-26T04:51:53.000Z,1011.82
2023-03-26T04:54:32.000Z,1011.85
2023-03-26T04:57:14.000Z,1011.84
2023-03-26T04:59:57.000Z,1012.0
2023-03-26T05:02:38.000Z,1011.98
2023-03-26T05:05:20.000Z,1011.86
2023-03-26T05:08:00.000Z,1011.87
2023-03-26T05:10:45.000Z,1011.94
2023-03-26T05:13:27.000Z,1011.88
2023-03-26T05:16:07.000Z,1011.93
2023-03-26T05:18:47.000Z,1011.99
2023-03-26T05:21:28.000Z,1011.91
2023-03-26T05:24:09.000Z,1011.96
2023-03-26T05:26:49.000Z,1011.96
2023-03-26T05:29:31.000Z,1012.0
2023-03-26T05:32:13.000Z,1011.91
2023-03-26T05:34:58.000Z,1012.01
2023-03-26T05:37:39.000Z,1012.01
2023-03-26T05:40:21.000Z,1011.92
2023-03-26T05:43:03.000Z,1011.91
2023-03-26T05:45:44.000Z,1012.0
2023-03-26T05:48:25.000Z,1011.91
2023-03-26T05:51:05.000Z,1011.91
2023-03-26T05:53:47.000Z,1011.94
2023-03-26T05:56:36.000Z,1011.97
2023-03-26T05:59:15.000Z,1011.86
2023-03-26T06:01:55.000Z,1011.86
2023-03-26T06:04:36.000Z,1011.84
2023-03-26T06:07:16.000Z,1011.72
2023-03-26T06:09:58.000Z,1011.82
2023-03-26T06:12:38.000Z,1011.8
2023-03-26T06:15:21.000Z,1011.77
2023-03-26T06:18:04.000Z,1011.77
2023-03-26T06:20:44.000Z,1011.79
2023-03-26T06:23:25.000Z,1011.72
2023-03-26T06:26:09.000Z,1011.71
2023-03-26T06:28:49.000Z,1011.69
2023-03-26T06:31:29.000Z,1011.62
2023-03-26T06:34:13.000Z,1011.63
2023-03-26T06:36:56.000Z,1011.68
2023-03-26T06:39:38.000Z,1011.71
2023-03-26T06:42:19.000Z,1011.64
2023-03-26T06:45:00.000Z,1011.72
2023-03-26T06:47:42.000Z,1011.76
2023-03-26T06:50:22.000Z,1011.67
2023-03-26T06:53:02.000Z,1011.73
2023-03-26T06:55:42.000Z,1011.74
2023-03-26T06:58:23.000Z,1011.66
2023-03-26T07:01:02.000Z,1011.68
2023-03-26T07:03:43.000Z,1011.65
2023-03-26T07:06:23.000Z,1011.57
2023-03-26T07:09:04.000Z,1011.64
2023-03-26T07:11:42.000Z,1011.66
2023-03-26T07:14:23.000Z,1011.54
2023-03-26T07:17:04.000Z,1011.57
2023-03-26T07:19:43.000Z,1011.56
2023-03-26T07:22:22.000Z,1011.41
2023-03-26T07:25:04.000Z,1011.41
2023-03-26T07:27:44.000Z,1011.41
2023-03-26T07:30:28.000Z,1011.35
2023-03-26T07:33:10.000Z,1011.33
2023-03-26T07:35:53.000Z,1011.39
2023-03-26T07:38:34.000Z,1011.27
2023-03-26T07:41:14.000Z,1011.22
2023-03-26T07:43:57.000Z,1011.29
2023-03-26T07:46:41.000Z,1011.2
2023-03-26T07:49:22.000Z,1011.11
2023-03-26T07:52:04.000Z,1011.04
2023-03-26T07:54:43.000Z,1010.95
2023-03-26T07:57:27.000Z,1010.85
2023-03-26T08:00:09.000Z,1010.87
2023-03-26T08:02:51.000Z,1011.03
2023-03-26T08:05:31.000Z,1010.86
2023-03-26T08:08:11.000Z,1010.9
2023-03-26T08:10:53.000Z,1010.92
2023-03-26T08:13:34.000Z,1010.78
2023-03-26T08:16:14.000Z,1010.76
2023-03-26T08:18:58.000Z,1010.84
2023-03-26T08:21:37.000Z,1010.71
2023-03-26T08:24:16.000Z,1010.74
2023-03-26T08:26:58.000Z,1010.76
2023-03-26T08:29:40.000Z,1010.7
2023-03-26T08:32:22.000Z,1010.74
2023-03-26T08:35:05.000Z,1010.86
2023-03-26T08:37:46.000Z,1010.86
2023-03-26T08:40:27.000Z,1010.73
2023-03-26T08:43:12.000Z,1010.66
2023-03-26T08:45:52.000Z,1010.75
2023-03-26T08:48:35.000Z,1010.57
2023-03-26T08:51:16.000Z,1010.54
2023-03-26T08:53:55.000Z,1010.61
2023-03-26T08:56:35.000Z,1010.4
2023-03-26T08:59:16.000Z,1010.39
2023-03-26T09:01:58.000Z,1010.47
2023-03-26T09:04:42.000Z,1010.36
2023-03-26T09:07:22.000Z,1010.37
2023-03-26T09:10:05.000Z,1010.41
2023-03-26T09:12:45.000Z,1010.41
2023-03-26T09:15:25.000Z,1010.4
2023-03-26T09:18:06.000Z,1010.46
2023-03-26T09:20:46.000Z,1010.44
2023-03-26T09:23:29.000Z,1010.37
2023-03-26T09:26:11.000Z,1010.41
2023-03-26T09:28:52.000Z,1010.4
2023-03-26T09:31:32.000Z,1010.25
2023-03-26T09:34:13.000Z,1010.35
2023-03-26T09:36:55.000Z,1010.38
2023-03-26T09:39:38.000Z,1010.26
2023-03-26T09:42:19.000Z,1010.29
2023-03-26T09:45:00.000Z,1010.39
2023-03-26T09:47:41.000Z,1010.28
2023-03-26T09:50:22.000Z,1010.29
2023-03-26T09:53:03.000Z,1010.3
2023-03-26T09:55:45.000Z,1010.1
2023-03-26T09:58:27.000Z,1010.07
2023-03-26T10:01:12.000Z,1010.16
2023-03-26T10:03:53.000Z,1010.13
2023-03-26T10:06:33.000Z,1009.97
2023-03-26T10:09:13.000Z,1010.01
2023-03-26T10:11:55.000Z,1009.92
2023-03-26T10:14:37.000Z,1009.81
2023-03-26T10:17:22.000Z,1009.73
2023-03-26T10:20:02.000Z,1009.79
2023-03-26T10:22:47.000Z,1009.73
2023-03-26T10:25:28.000Z,1009.65
2023-03-26T10:28:10.000Z,1009.68
2023-03-26T10:30:51.000Z,1009.68
2023-03-26T10:33:31.000Z,1009.54
2023-03-26T10:36:10.000Z,1009.63
2023-03-26T10:38:49.000Z,1009.56
2023-03-26T10:41:30.000Z,1009.46
2023-03-26T10:44:13.000Z,1009.54
2023-03-26T10:46:58.000Z,1009.41
2023-03-26T10:49:42.000Z,1009.32
2023-03-26T10:52:22.000Z,1009.34
2023-03-26T10:55:08.000Z,1009.41
2023-03-26T10:57:50.000Z,1009.44
2023-03-26T11:00:32.000Z,1009.29
2023-03-26T11:03:15.000Z,1009.34
2023-03-26T11:05:56.000Z,1009.35
2023-03-26T11:08:37.000Z,1009.24
2023-03-26T11:11:16.000Z,1009.31
2023-03-26T11:13:56.000Z,1009.32
2023-03-26T11:16:37.000Z,1009.22
2023-03-26T11:19:20.000Z,1009.3
2023-03-26T11:22:02.000Z,1009.38
2023-03-26T11:24:45.000Z,1009.3
2023-03-26T11:27:29.000Z,1009.26
2023-03-26T11:30:10.000Z,1009.3
2023-03-26T11:32:51.000Z,1009.26
2023-03-26T11:35:33.000Z,1009.22
2023-03-26T11:38:15.000Z,1009.21
2023-03-26T11:40:58.000Z,1009.27
2023-03-26T11:43:37.000Z,1009.13
2023-03-26T11:46:17.000Z,1009.16
2023-03-26T11:48:57.000Z,1009.15
2023-03-26T11:51:36.000Z,1009.06
2023-03-26T11:54:14.000Z,1009.12
2023-03-26T11:56:56.000Z,1009.14
2023-03-26T11:59:34.000Z,1009.1
2023-03-26T12:02:13.000Z,1009.18
2023-03-26T12:04:57.000Z,1009.22
2023-03-26T12:07:39.000Z,1009.21
2023-03-26T12:10:22.000Z,1009.31
2023-03-26T12:13:07.000Z,1009.27
2023-03-26T12:15:50.000Z,1009.15
2023-03-26T12:18:32.000Z,1009.18
2023-03-26T12:21:13.000Z,1009.22
2023-03-26T12:23:57.000Z,1009.13
2023-03-26T12:26:39.000Z,1008.99
2023-03-26T12:29:22.000Z,1009.03
2023-03-26T12:32:08.000Z,1009.02
2023-03-26T12:34:50.000Z,1008.82
2023-03-26T12:37:33.000Z,1008.84
2023-03-26T12:37:33.000Z,1008.84
2023-03-26T12:40:14.000Z,1008.88
2023-03-26T12:40:14.000Z,1008.88
2023-03-26T12:42:57.000Z,1008.86
2023-03-26T12:42:57.000Z,1008.86
2023-03-26T12:45:40.000Z,1008.76
2023-03-26T12:45:40.000Z,1008.76
2023-03-26T12:48:23.000Z,1008.8
2023-03-26T12:51:05.000Z,1008.86
2023-03-26T12:53:45.000Z,1008.73
2023-03-26T12:56:29.000Z,1008.74
2023-03-26T12:59:15.000Z,1008.84
2023-03-26T13:01:56.000Z,1008.73
2023-03-26T13:04:38.000Z,1008.66
2023-03-26T13:07:25.000Z,1008.76
2023-03-26T13:10:08.000Z,1008.75
2023-03-26T13:12:50.000Z,1008.68
2023-03-26T13:15:33.000Z,1008.71
2023-03-26T13:18:14.000Z,1008.77
2023-03-26T13:20:57.000Z,1008.75
2023-03-26T13:23:40.000Z,1008.68
2023-03-26T13:26:23.000Z,1008.8
2023-03-26T13:29:08.000Z,1008.8
2023-03-26T13:31:49.000Z,1008.7
2023-03-26T13:34:32.000Z,1008.69
2023-03-26T13:37:14.000Z,1008.76
2023-03-26T13:39:59.000Z,1008.8
2023-03-26T13:42:40.000Z,1008.69
2023-03-26T13:45:23.000Z,1008.77
2023-03-26T13:48:07.000Z,1008.75
2023-03-26T13:50:48.000Z,1008.69
2023-03-26T13:53:29.000Z,1008.65
2023-03-26T13:56:12.000Z,1008.73
2023-03-26T13:58:56.000Z,1008.63
2023-03-26T14:01:39.000Z,1008.66
2023-03-26T14:04:21.000Z,1008.73
2023-03-26T14:07:05.000Z,1008.74
2023-03-26T14:09:45.000Z,1008.65
2023-03-26T14:12:26.000Z,1008.72
2023-03-26T14:15:09.000Z,1008.69
2023-03-26T14:17:49.000Z,1008.68
2023-03-26T14:20:33.000Z,1008.72
2023-03-26T14:23:14.000Z,1008.74
2023-03-26T14:26:00.000Z,1008.7
2023-03-26T14:28:41.000Z,1008.7
2023-03-26T14:31:23.000Z,1008.75
2023-03-26T14:34:05.000Z,1008.73
2023-03-26T14:36:52.000Z,1008.61
2023-03-26T14:39:31.000Z,1008.71
2023-03-26T14:42:20.000Z,1008.7
2023-03-26T14:45:02.000Z,1008.63
2023-03-26T14:47:42.000Z,1008.26
2023-03-26T14:50:24.000Z,1008.61
2023-03-26T14:53:07.000Z,1008.6
2023-03-26T14:55:48.000Z,1008.55
2023-03-26T14:58:29.000Z,1008.57
2023-03-26T15:01:14.000Z,1008.61
2023-03-26T15:03:57.000Z,1008.5
2023-03-26T15:06:37.000Z,1008.47
2023-03-26T15:09:23.000Z,1008.51
2023-03-26T15:12:08.000Z,1008.49
2023-03-26T15:14:50.000Z,1008.35
2023-03-26T15:17:31.000Z,1008.43
2023-03-26T15:20:13.000Z,1008.4
2023-03-26T15:22:54.000Z,1008.35
2023-03-26T15:25:41.000Z,1008.34
2023-03-26T15:28:24.000Z,1008.43
2023-03-26T15:31:08.000Z,1008.38
2023-03-26T15:33:49.000Z,1008.33
2023-03-26T15:36:29.000Z,1008.4
2023-03-26T15:39:10.000Z,1008.34
2023-03-26T15:41:53.000Z,1008.28
2023-03-26T15:44:35.000Z,1008.39
2023-03-26T15:47:20.000Z,1008.37
2023-03-26T15:50:06.000Z,1008.32
2023-03-26T15:52:46.000Z,1008.27
2023-03-26T15:55:27.000Z,1008.31
2023-03-26T15:58:09.000Z,1008.31
2023-03-26T16:00:49.000Z,1008.21
2023-03-26T16:03:32.000Z,1008.28
2023-03-26T16:06:14.000Z,1008.25
2023-03-26T16:08:56.000Z,1008.19
2023-03-26T16:11:37.000Z,1008.25
2023-03-26T16:14:22.000Z,1008.26
2023-03-26T16:17:04.000Z,1008.16
2023-03-26T16:19:45.000Z,1008.17
2023-03-26T16:22:28.000Z,1008.23
2023-03-26T16:25:11.000Z,1008.19
2023-03-26T16:27:56.000Z,1008.12
2023-03-26T16:30:42.000Z,1008.13
2023-03-26T16:33:31.000Z,1008.2
2023-03-26T16:36:14.000Z,1008.16
2023-03-26T16:38:59.000Z,1008.1
2023-03-26T16:41:41.000Z,1008.08
2023-03-26T16:44:23.000Z,1008.18
2023-03-26T16:47:05.000Z,1008.08
2023-03-26T16:49:49.000Z,1008.05
2023-03-26T16:52:36.000Z,1008.12
2023-03-26T16:55:16.000Z,1008.15
2023-03-26T16:58:09.000Z,1008.02
2023-03-26T17:00:52.000Z,1008.01
2023-03-26T17:03:34.000Z,1008.11
2023-03-26T17:06:15.000Z,1008.17
2023-03-26T17:09:01.000Z,1008.11
2023-03-26T17:11:47.000Z,1008.08
2023-03-26T17:14:30.000Z,1008.2
2023-03-26T17:17:12.000Z,1008.19
2023-03-26T17:19:59.000Z,1008.11
2023-03-26T17:22:42.000Z,1008.15
2023-03-26T17:25:24.000Z,1008.22
2023-03-26T17:28:06.000Z,1008.19
2023-03-26T17:30:52.000Z,1008.22
2023-03-26T17:33:39.000Z,1008.3
2023-03-26T17:36:35.000Z,1008.31
2023-03-26T17:39:22.000Z,1008.34
2023-03-26T17:42:05.000Z,1008.27
2023-03-26T17:44:51.000Z,1008.33
2023-03-26T17:47:35.000Z,1008.42
2023-03-26T17:50:15.000Z,1008.42
2023-03-26T17:52:55.000Z,1008.35
2023-03-26T17:55:38.000Z,1008.4
2023-03-26T17:58:20.000Z,1008.39
2023-03-26T18:01:07.000Z,1008.36
2023-03-26T18:03:49.000Z,1008.37
2023-03-26T18:06:29.000Z,1008.44
2023-03-26T18:09:13.000Z,1008.38
2023-03-26T18:11:56.000Z,1008.36
2023-03-26T18:14:42.000Z,1008.47
2023-03-26T18:17:23.000Z,1008.42
2023-03-26T18:20:06.000Z,1008.35
2023-03-26T18:22:47.000Z,1008.34
2023-03-26T18:25:31.000Z,1008.49
2023-03-26T18:28:16.000Z,1008.5
2023-03-26T18:30:59.000Z,1008.39
2023-03-26T18:33:40.000Z,1008.49
2023-03-26T18:36:21.000Z,1008.48
2023-03-26T18:39:07.000Z,1008.35
2023-03-26T18:41:51.000Z,1008.36
2023-03-26T18:44:33.000Z,1008.42
2023-03-26T18:47:13.000Z,1008.33
2023-03-26T18:49:54.000Z,1008.32
2023-03-26T18:52:48.000Z,1008.29
2023-03-26T18:55:32.000Z,1008.34
2023-03-26T18:58:14.000Z,1008.24
2023-03-26T19:00:58.000Z,1008.23
2023-03-26T19:03:40.000Z,1008.25
2023-03-26T19:06:24.000Z,1008.22
2023-03-26T19:09:08.000Z,1008.13
2023-03-26T19:11:50.000Z,1008.16
2023-03-26T19:14:35.000Z,1008.23
2023-03-26T19:17:22.000Z,1008.19
2023-03-26T19:20:04.000Z,1008.12
2023-03-26T19:22:44.000Z,1008.22
2023-03-26T19:25:25.000Z,1008.2
2023-03-26T19:28:10.000Z,1008.15
2023-03-26T19:30:57.000Z,1008.13
2023-03-26T19:33:39.000Z,1008.17
2023-03-26T19:36:22.000Z,1008.16
2023-03-26T19:39:09.000Z,1008.04
2023-03-26T19:41:52.000Z,1008.02
2023-03-26T19:44:35.000Z,1008.07
2023-03-26T19:47:17.000Z,1007.99
2023-03-26T19:50:03.000Z,1008.03
2023-03-26T19:52:43.000Z,1008.1
2023-03-26T19:55:24.000Z,1008.02
2023-03-26T19:58:05.000Z,1007.94
2023-03-26T20:00:48.000Z,1008.05
2023-03-26T20:03:33.000Z,1008.02
2023-03-26T20:06:14.000Z,1007.96
2023-03-26T20:08:55.000Z,1007.92
2023-03-26T20:11:39.000Z,1008.03
2023-03-26T20:14:24.000Z,1008.01
2023-03-26T20:17:09.000Z,1007.92
2023-03-26T20:19:51.000Z,1007.99
2023-03-26T20:22:33.000Z,1008.02
2023-03-26T20:25:15.000Z,1007.94
2023-03-26T20:28:00.000Z,1007.94
2023-03-26T20:30:49.000Z,1007.96
2023-03-26T20:33:30.000Z,1007.94
2023-03-26T20:36:15.000Z,1007.88
2023-03-26T20:38:58.000Z,1007.92
2023-03-26T20:41:42.000Z,1007.98
2023-03-26T20:44:23.000Z,1007.98
2023-03-26T20:47:12.000Z,1007.89
2023-03-26T20:49:55.000Z,1007.86
2023-03-26T20:52:42.000Z,1007.9
2023-03-26T20:55:23.000Z,1007.84
2023-03-26T20:58:05.000Z,1007.83
2023-03-26T21:00:49.000Z,1007.99
2023-03-26T21:03:30.000Z,1007.95
2023-03-26T21:06:13.000Z,1007.84
2023-03-26T21:08:57.000Z,1007.92
2023-03-26T21:11:37.000Z,1007.96
2023-03-26T21:14:16.000Z,1007.84
2023-03-26T21:17:07.000Z,1007.88
2023-03-26T21:19:49.000Z,1007.96
2023-03-26T21:22:31.000Z,1008.05
2023-03-26T21:25:14.000Z,1007.97
2023-03-26T21:27:55.000Z,1008.04
2023-03-26T21:30:41.000Z,1008.07
2023-03-26T21:33:24.000Z,1008.06
2023-03-26T21:36:13.000Z,1008.05
2023-03-26T21:38:55.000Z,1008.09
2023-03-26T21:41:37.000Z,1008.15
2023-03-26T21:44:19.000Z,1008.13
2023-03-26T21:47:05.000Z,1008.18
2023-03-26T21:49:46.000Z,1008.23
2023-03-26T21:52:29.000Z,1008.27
2023-03-26T21:55:14.000Z,1008.21
2023-03-26T21:57:56.000Z,1008.28
2023-03-26T22:00:38.000Z,1008.32
2023-03-26T22:03:27.000Z,1008.35
2023-03-26T22:06:09.000Z,1008.29
2023-03-26T22:08:50.000Z,1008.42
2023-03-26T22:11:31.000Z,1008.49
2023-03-26T22:14:13.000Z,1008.4
2023-03-26T22:16:57.000Z,1008.45
2023-03-26T22:19:40.000Z,1008.43
2023-03-26T22:22:23.000Z,1008.38
2023-03-26T22:25:08.000Z,1008.43
2023-03-26T22:27:56.000Z,1008.51
2023-03-26T22:30:39.000Z,1008.53
2023-03-26T22:33:22.000Z,1008.52
2023-03-26T22:36:04.000Z,1008.58
2023-03-26T22:38:50.000Z,1008.65
2023-03-26T22:41:35.000Z,1008.76
2023-03-26T22:44:15.000Z,1008.75
2023-03-26T22:46:57.000Z,1008.84
2023-03-26T22:49:40.000Z,1008.95
2023-03-26T22:52:25.000Z,1008.83
2023-03-26T22:55:09.000Z,1008.89
2023-03-26T22:57:50.000Z,1008.96
2023-03-26T23:00:31.000Z,1009.03
2023-03-26T23:03:15.000Z,1008.97
2023-03-26T23:05:59.000Z,1009.05
2023-03-26T23:08:42.000Z,1009.16
2023-03-26T23:11:25.000Z,1009.08
2023-03-26T23:14:08.000Z,1009.13
2023-03-26T23:16:52.000Z,1009.32
2023-03-26T23:19:34.000Z,1009.4
2023-03-26T23:22:16.000Z,1009.37
2023-03-26T23:24:57.000Z,1009.49
2023-03-26T23:27:41.000Z,1009.54
2023-03-26T23:30:28.000Z,1009.55
2023-03-26T23:33:11.000Z,1009.71
2023-03-26T23:35:53.000Z,1009.78
2023-03-26T23:38:34.000Z,1009.92
2023-03-26T23:41:25.000Z,1009.89
2023-03-26T23:44:07.000Z,1009.89
2023-03-26T23:46:52.000Z,1010.07
2023-03-26T23:49:34.000Z,1010.11
2023-03-26T23:52:15.000Z,1010.04
2023-03-26T23:54:57.000Z,1010.17
2023-03-26T23:57:44.000Z,1010.17
